createdAt,value
2017-09-19T00:00:48.790Z,0
2017-09-19T00:01:48.746Z,0
2017-09-19T00:02:48.821Z,0
2017-09-19T00:03:48.820Z,0
2017-09-19T00:04:48.784Z,0
2017-09-19T00:05:48.776Z,0
2017-09-19T00:06:48.772Z,0
2017-09-19T00:07:48.721Z,0
2017-09-19T00:08:48.748Z,0
2017-09-19T00:09:48.793Z,0
2017-09-19T00:10:48.750Z,0
2017-09-19T00:11:48.792Z,0
2017-09-19T00:12:48.738Z,0
2017-09-19T00:13:48.752Z,0
2017-09-19T00:14:48.760Z,0
2017-09-19T00:15:48.751Z,0
2017-09-19T00:16:48.817Z,0
2017-09-19T00:17:48.736Z,0
2017-09-19T00:18:48.813Z,0
2017-09-19T00:19:48.734Z,0
2017-09-19T00:20:48.795Z,0
2017-09-19T00:21:48.838Z,0
2017-09-19T00:22:48.837Z,0
2017-09-19T00:23:48.796Z,0
2017-09-19T00:24:48.837Z,0
2017-09-19T00:25:48.880Z,0
2017-09-19T00:26:48.861Z,0
2017-09-19T00:27:48.793Z,0
2017-09-19T00:28:48.856Z,0
2017-09-19T00:29:48.787Z,0
2017-09-19T00:30:48.844Z,0
2017-09-19T00:31:48.844Z,0
2017-09-19T00:32:48.844Z,0
2017-09-19T00:33:48.797Z,0
2017-09-19T00:34:48.790Z,0
2017-09-19T00:35:48.753Z,0
2017-09-19T00:36:48.796Z,0
2017-09-19T00:37:48.817Z,0
2017-09-19T00:38:48.801Z,0
2017-09-19T00:39:48.851Z,0
2017-09-19T00:40:48.847Z,0
2017-09-19T00:41:48.799Z,0
2017-09-19T00:42:48.795Z,0
2017-09-19T00:43:48.851Z,0
2017-09-19T00:44:48.846Z,0
2017-09-19T00:45:48.799Z,0
2017-09-19T00:46:48.869Z,0
2017-09-19T00:47:48.858Z,0
2017-09-19T00:48:48.809Z,0
2017-09-19T00:49:48.855Z,0
2017-09-19T00:50:48.755Z,0
2017-09-19T00:51:48.801Z,0
2017-09-19T00:52:48.813Z,0
2017-09-19T00:53:48.813Z,0
2017-09-19T00:54:48.801Z,0
2017-09-19T00:55:48.821Z,0
2017-09-19T00:56:48.772Z,0
2017-09-19T00:57:48.852Z,0
2017-09-19T00:58:48.778Z,0
2017-09-19T00:59:48.852Z,0
2017-09-19T01:00:48.818Z,0
2017-09-19T01:01:48.782Z,0
2017-09-19T01:02:48.820Z,0
2017-09-19T01:03:48.810Z,0
2017-09-19T01:04:48.791Z,0
2017-09-19T01:05:48.852Z,0
2017-09-19T01:06:48.820Z,0
2017-09-19T01:07:48.819Z,0
2017-09-19T01:08:48.862Z,0
2017-09-19T01:09:48.857Z,0
2017-09-19T01:10:48.859Z,0
2017-09-19T01:11:48.859Z,0
2017-09-19T01:12:48.812Z,0
2017-09-19T01:13:48.812Z,0
2017-09-19T01:14:48.798Z,0
2017-09-19T01:15:48.768Z,0
2017-09-19T01:16:48.830Z,0
2017-09-19T01:17:48.803Z,0
2017-09-19T01:18:48.775Z,0
2017-09-19T01:19:48.791Z,0
2017-09-19T01:20:48.782Z,0
2017-09-19T01:21:48.875Z,0
2017-09-19T01:22:48.874Z,0
2017-09-19T01:23:48.878Z,0
2017-09-19T01:24:48.877Z,0
2017-09-19T01:25:48.876Z,0
2017-09-19T01:26:48.889Z,0
2017-09-19T01:27:48.871Z,0
2017-09-19T01:28:48.833Z,0
2017-09-19T01:29:48.834Z,0
2017-09-19T01:30:48.776Z,0
2017-09-19T01:31:48.803Z,0
2017-09-19T01:33:48.778Z,0
2017-09-19T01:34:48.838Z,0
2017-09-19T01:35:48.831Z,0
2017-09-19T01:36:48.800Z,0
2017-09-19T01:37:48.784Z,0
2017-09-19T01:38:48.846Z,0
2017-09-19T01:39:48.828Z,0
2017-09-19T01:40:48.770Z,0
2017-09-19T01:41:48.836Z,0
2017-09-19T01:42:48.852Z,0
2017-09-19T01:43:48.773Z,0
2017-09-19T01:44:48.773Z,0
2017-09-19T01:45:48.802Z,0
2017-09-19T01:46:48.809Z,0
2017-09-19T01:47:48.812Z,0
2017-09-19T01:48:48.777Z,0
2017-09-19T01:49:48.808Z,0
2017-09-19T01:50:48.891Z,0
2017-09-19T01:51:48.891Z,0
2017-09-19T01:52:48.891Z,0
2017-09-19T01:53:48.933Z,0
2017-09-19T01:54:48.797Z,0
2017-09-19T01:55:48.848Z,0
2017-09-19T01:56:48.844Z,0
2017-09-19T01:57:48.846Z,0
2017-09-19T01:58:48.895Z,0
2017-09-19T01:59:48.888Z,0
2017-09-19T02:00:48.898Z,0
2017-09-19T02:01:48.899Z,0
2017-09-19T02:02:48.863Z,0
2017-09-19T02:03:48.848Z,0
2017-09-19T02:04:48.897Z,0
2017-09-19T02:05:48.853Z,0
2017-09-19T02:06:48.851Z,0
2017-09-19T02:07:48.918Z,0
2017-09-19T02:08:48.849Z,0
2017-09-19T02:09:48.900Z,0
2017-09-19T02:10:48.901Z,0
2017-09-19T02:11:48.903Z,0
2017-09-19T02:12:48.923Z,0
2017-09-19T02:13:48.851Z,0
2017-09-19T02:14:48.937Z,0
2017-09-19T02:15:48.855Z,0
2017-09-19T02:16:48.852Z,0
2017-09-19T02:17:48.856Z,0
2017-09-19T02:18:49.021Z,0
2017-09-19T02:19:48.859Z,0
2017-09-19T02:20:48.813Z,0
2017-09-19T02:21:48.928Z,0
2017-09-19T02:22:48.860Z,0
2017-09-19T02:23:48.856Z,0
2017-09-19T02:24:48.861Z,0
2017-09-19T02:25:48.911Z,0
2017-09-19T02:26:48.905Z,0
2017-09-19T02:27:48.815Z,0
2017-09-19T02:28:48.844Z,0
2017-09-19T02:29:48.863Z,0
2017-09-19T02:30:48.913Z,0
2017-09-19T02:31:48.910Z,0
2017-09-19T02:32:48.882Z,0
2017-09-19T02:33:48.916Z,0
2017-09-19T02:34:48.869Z,0
2017-09-19T02:35:48.864Z,0
2017-09-19T02:36:48.915Z,0
2017-09-19T02:37:48.821Z,0
2017-09-19T02:38:48.919Z,0
2017-09-19T02:39:48.922Z,0
2017-09-19T02:40:48.825Z,0
2017-09-19T02:41:48.876Z,0
2017-09-19T02:42:48.795Z,0
2017-09-19T02:43:48.807Z,0
2017-09-19T02:44:48.811Z,0
2017-09-19T02:45:48.882Z,0
2017-09-19T02:46:48.794Z,0
2017-09-19T02:47:48.828Z,0
2017-09-19T02:48:48.791Z,0
2017-09-19T02:49:48.887Z,0
2017-09-19T02:50:48.885Z,0
2017-09-19T02:51:48.847Z,0
2017-09-19T02:52:48.846Z,0
2017-09-19T02:53:48.874Z,0
2017-09-19T02:54:48.890Z,0
2017-09-19T02:55:48.820Z,0
2017-09-19T02:56:48.857Z,0
2017-09-19T02:57:48.910Z,0
2017-09-19T02:58:48.823Z,0
2017-09-19T02:59:48.916Z,0
2017-09-19T03:00:48.929Z,0
2017-09-19T03:01:48.935Z,0
2017-09-19T03:02:48.934Z,0
2017-09-19T03:03:48.896Z,0
2017-09-19T03:04:48.935Z,0
2017-09-19T03:05:48.921Z,0
2017-09-19T03:06:48.928Z,0
2017-09-19T03:07:48.926Z,0
2017-09-19T03:08:48.880Z,0
2017-09-19T03:09:48.887Z,0
2017-09-19T03:10:48.888Z,0
2017-09-19T03:11:48.893Z,0
2017-09-19T03:12:48.854Z,0
2017-09-19T03:13:48.889Z,0
2017-09-19T03:14:48.856Z,0
2017-09-19T03:15:48.863Z,0
2017-09-19T03:16:48.891Z,0
2017-09-19T03:17:48.853Z,0
2017-09-19T03:18:48.946Z,0
2017-09-19T03:19:48.893Z,0
2017-09-19T03:20:48.908Z,0
2017-09-19T03:21:48.932Z,0
2017-09-19T03:22:48.912Z,0
2017-09-19T03:23:48.904Z,0
2017-09-19T03:24:48.893Z,0
2017-09-19T03:25:48.931Z,0
2017-09-19T03:26:48.867Z,0
2017-09-19T03:27:48.931Z,0
2017-09-19T03:28:48.869Z,0
2017-09-19T03:29:48.932Z,0
2017-09-19T03:30:48.905Z,0
2017-09-19T03:31:48.951Z,0
2017-09-19T03:32:48.949Z,0
2017-09-19T03:33:48.903Z,0
2017-09-19T03:34:48.902Z,0
2017-09-19T03:35:48.910Z,0
2017-09-19T03:36:48.902Z,0
2017-09-19T03:37:48.906Z,0
2017-09-19T03:38:48.955Z,0
2017-09-19T03:39:48.906Z,0
2017-09-19T03:40:48.870Z,0
2017-09-19T03:41:48.854Z,0
2017-09-19T03:42:48.861Z,0
2017-09-19T03:43:48.915Z,0
2017-09-19T03:44:48.831Z,0
2017-09-19T03:45:48.848Z,0
2017-09-19T03:46:48.851Z,0
2017-09-19T03:47:48.850Z,0
2017-09-19T03:48:48.921Z,0
2017-09-19T03:49:48.899Z,0
2017-09-19T03:50:48.917Z,0
2017-09-19T03:51:48.915Z,0
2017-09-19T03:52:48.914Z,0
2017-09-19T03:53:48.913Z,0
2017-09-19T03:55:48.912Z,0
2017-09-19T03:56:48.916Z,0
2017-09-19T03:57:48.880Z,0
2017-09-19T03:58:48.916Z,0
2017-09-19T03:59:48.880Z,0
2017-09-19T04:00:48.970Z,0
2017-09-19T04:01:48.982Z,0
2017-09-19T04:02:48.972Z,0
2017-09-19T04:03:48.966Z,0
2017-09-19T04:04:48.972Z,0
2017-09-19T04:05:48.970Z,0
2017-09-19T04:06:48.985Z,0
2017-09-19T04:07:48.986Z,0
2017-09-19T04:08:48.970Z,0
2017-09-19T04:09:48.971Z,0
2017-09-19T04:10:48.927Z,0
2017-09-19T04:11:48.930Z,0
2017-09-19T04:12:48.994Z,0
2017-09-19T04:13:48.927Z,0
2017-09-19T04:14:48.990Z,0
2017-09-19T04:15:48.932Z,0
2017-09-19T04:16:49.007Z,0
2017-09-19T04:17:48.934Z,0
2017-09-19T04:18:48.992Z,0
2017-09-19T04:19:48.935Z,0
2017-09-19T04:20:48.980Z,0
2017-09-19T04:21:49.002Z,0
2017-09-19T04:22:48.937Z,0
2017-09-19T04:23:48.997Z,0
2017-09-19T04:24:48.959Z,0
2017-09-19T04:25:49.000Z,0
2017-09-19T04:26:48.937Z,0
2017-09-19T04:27:49.004Z,0
2017-09-19T04:28:48.940Z,0
2017-09-19T04:29:48.892Z,0
2017-09-19T04:30:48.937Z,4
2017-09-19T04:31:49.002Z,4
2017-09-19T04:32:48.943Z,0
2017-09-19T04:33:48.990Z,4
2017-09-19T04:34:48.943Z,4
2017-09-19T04:35:48.989Z,8
2017-09-19T04:36:48.939Z,4
2017-09-19T04:37:48.991Z,12
2017-09-19T04:38:48.989Z,12
2017-09-19T04:39:48.991Z,12
2017-09-19T04:40:49.010Z,16
2017-09-19T04:41:48.916Z,16
2017-09-19T04:42:48.919Z,20
2017-09-19T04:43:48.909Z,20
2017-09-19T04:44:48.978Z,24
2017-09-19T04:45:48.913Z,28
2017-09-19T04:46:48.958Z,32
2017-09-19T04:47:48.916Z,32
2017-09-19T04:48:48.960Z,36
2017-09-19T04:49:48.939Z,40
2017-09-19T04:50:48.957Z,52
2017-09-19T04:51:48.921Z,60
2017-09-19T04:52:48.988Z,72
2017-09-19T04:53:48.924Z,84
2017-09-19T04:54:48.899Z,104
2017-09-19T04:55:48.944Z,116
2017-09-19T04:56:48.996Z,140
2017-09-19T04:57:48.920Z,160
2017-09-19T04:58:48.947Z,184
2017-09-19T04:59:49.026Z,208
2017-09-19T05:00:48.900Z,228
2017-09-19T05:01:48.925Z,256
2017-09-19T05:02:48.930Z,292
2017-09-19T05:03:48.996Z,328
2017-09-19T05:04:48.934Z,368
2017-09-19T05:05:48.991Z,412
2017-09-19T05:06:48.970Z,456
2017-09-19T05:07:48.930Z,496
2017-09-19T05:08:49.011Z,528
2017-09-19T05:09:48.927Z,556
2017-09-19T05:10:48.999Z,584
2017-09-19T05:11:48.929Z,600
2017-09-19T05:12:48.929Z,620
2017-09-19T05:13:48.899Z,644
2017-09-19T05:14:48.982Z,684
2017-09-19T05:15:48.900Z,716
2017-09-19T05:16:48.985Z,756
2017-09-19T05:17:48.936Z,816
2017-09-19T05:18:48.986Z,912
2017-09-19T05:19:48.904Z,1008
2017-09-19T05:20:48.934Z,1056
2017-09-19T05:21:48.964Z,1068
2017-09-19T05:22:48.947Z,1112
2017-09-19T05:23:48.918Z,1176
2017-09-19T05:24:48.939Z,1204
2017-09-19T05:25:48.985Z,1188
2017-09-19T05:26:49.035Z,1204
2017-09-19T05:27:49.044Z,1308
2017-09-19T05:28:49.004Z,1480
2017-09-19T05:29:49.015Z,1680
2017-09-19T05:30:49.007Z,1836
2017-09-19T05:31:48.938Z,1932
2017-09-19T05:32:49.007Z,1996
2017-09-19T05:33:48.983Z,2104
2017-09-19T05:34:48.941Z,2244
2017-09-19T05:35:48.988Z,2396
2017-09-19T05:36:48.973Z,2540
2017-09-19T05:37:48.982Z,2724
2017-09-19T05:38:48.919Z,2952
2017-09-19T05:39:48.987Z,3196
2017-09-19T05:40:48.951Z,3408
2017-09-19T05:41:48.914Z,3620
2017-09-19T05:42:48.885Z,3808
2017-09-19T05:43:48.946Z,3992
2017-09-19T05:44:49.065Z,4220
2017-09-19T05:45:48.953Z,4452
2017-09-19T05:46:48.950Z,4520
2017-09-19T05:47:48.939Z,4564
2017-09-19T05:48:48.943Z,4700
2017-09-19T05:49:48.929Z,4976
2017-09-19T05:50:48.921Z,5220
2017-09-19T05:51:48.982Z,5480
2017-09-19T05:52:48.963Z,5756
2017-09-19T05:53:49.026Z,6124
2017-09-19T05:54:49.036Z,6588
2017-09-19T05:55:49.012Z,7072
2017-09-19T05:56:48.986Z,7400
2017-09-19T05:57:48.968Z,7760
2017-09-19T05:58:48.990Z,8048
2017-09-19T05:59:49.004Z,8456
2017-09-19T06:00:48.991Z,8980
2017-09-19T06:01:49.052Z,9476
2017-09-19T06:02:49.005Z,9812
2017-09-19T06:03:48.940Z,9988
2017-09-19T06:04:49.040Z,10336
2017-09-19T06:05:48.938Z,10636
2017-09-19T06:06:48.987Z,10704
2017-09-19T06:07:49.043Z,10736
2017-09-19T06:08:48.961Z,10856
2017-09-19T06:09:49.001Z,11004
2017-09-19T06:10:49.154Z,11208
2017-09-19T06:11:48.957Z,11508
2017-09-19T06:12:48.963Z,11728
2017-09-19T06:13:49.058Z,11788
2017-09-19T06:14:48.991Z,10956
2017-09-19T06:15:49.015Z,10164
2017-09-19T06:16:48.997Z,9624
2017-09-19T06:17:48.998Z,9152
2017-09-19T06:18:48.988Z,8840
2017-09-19T06:19:48.998Z,8864
2017-09-19T06:20:48.965Z,9076
2017-09-19T06:21:48.944Z,9332
2017-09-19T06:22:48.968Z,9516
2017-09-19T06:23:48.966Z,9760
2017-09-19T06:24:49.000Z,10296
2017-09-19T06:25:48.942Z,10872
2017-09-19T06:26:49.003Z,11440
2017-09-19T06:27:48.968Z,11516
2017-09-19T06:28:49.006Z,11328
2017-09-19T06:29:48.972Z,11380
2017-09-19T06:30:48.974Z,11844
2017-09-19T06:31:49.012Z,11824
2017-09-19T06:32:48.980Z,11192
2017-09-19T06:33:49.053Z,10764
2017-09-19T06:34:49.002Z,10384
2017-09-19T06:35:48.989Z,9956
2017-09-19T06:36:48.985Z,9844
2017-09-19T06:37:48.988Z,10004
2017-09-19T06:38:49.017Z,10256
2017-09-19T06:39:49.011Z,10612
2017-09-19T06:40:49.026Z,11160
2017-09-19T06:41:48.979Z,11576
2017-09-19T06:42:49.062Z,11880
2017-09-19T06:43:49.015Z,12188
2017-09-19T06:44:49.061Z,12544
2017-09-19T06:45:49.066Z,12948
2017-09-19T06:46:49.015Z,13108
2017-09-19T06:47:49.017Z,13048
2017-09-19T06:48:49.013Z,12536
2017-09-19T06:49:49.021Z,11908
2017-09-19T06:50:49.046Z,11420
2017-09-19T06:51:49.020Z,11128
2017-09-19T06:52:49.051Z,11144
2017-09-19T06:53:49.001Z,11644
2017-09-19T06:54:49.003Z,12592
2017-09-19T06:55:49.023Z,13580
2017-09-19T06:56:49.024Z,14452
2017-09-19T06:57:48.975Z,15120
2017-09-19T06:58:49.076Z,15728
2017-09-19T06:59:49.053Z,16236
2017-09-19T07:00:49.025Z,16584
2017-09-19T07:01:49.028Z,16592
2017-09-19T07:02:48.965Z,16324
2017-09-19T07:03:48.965Z,16060
2017-09-19T07:04:49.068Z,16044
2017-09-19T07:05:49.067Z,16600
2017-09-19T07:06:49.060Z,17748
2017-09-19T07:07:49.000Z,19372
2017-09-19T07:08:49.005Z,21344
2017-09-19T07:09:48.979Z,22944
2017-09-19T07:10:49.061Z,24352
2017-09-19T07:11:49.100Z,25504
2017-09-19T07:12:49.104Z,26528
2017-09-19T07:13:49.101Z,27552
2017-09-19T07:14:49.033Z,28800
2017-09-19T07:15:49.079Z,30112
2017-09-19T07:16:49.103Z,31712
2017-09-19T07:17:49.049Z,33216
2017-09-19T07:18:49.084Z,34656
2017-09-19T07:19:49.033Z,35648
2017-09-19T07:20:49.117Z,35712
2017-09-19T07:21:49.079Z,35840
2017-09-19T07:22:49.029Z,36416
2017-09-19T07:23:49.051Z,36416
2017-09-19T07:24:49.051Z,35200
2017-09-19T07:25:49.032Z,34624
2017-09-19T07:26:49.048Z,34400
2017-09-19T07:27:49.038Z,34848
2017-09-19T07:28:49.040Z,35360
2017-09-19T07:29:49.053Z,35232
2017-09-19T07:30:49.021Z,35776
2017-09-19T07:31:49.002Z,36768
2017-09-19T07:32:49.039Z,37600
2017-09-19T07:33:49.012Z,38144
2017-09-19T07:34:49.043Z,39712
2017-09-19T07:35:49.041Z,41728
2017-09-19T07:36:49.041Z,46112
2017-09-19T07:37:48.985Z,43552
2017-09-19T07:38:49.013Z,40320
2017-09-19T07:39:49.047Z,35360
2017-09-19T07:40:49.044Z,29376
2017-09-19T07:41:49.025Z,24672
2017-09-19T07:42:49.052Z,21728
2017-09-19T07:43:49.098Z,21128
2017-09-19T07:44:49.055Z,22400
2017-09-19T07:45:49.096Z,23328
2017-09-19T07:46:49.123Z,23200
2017-09-19T07:47:49.080Z,23040
2017-09-19T07:48:49.056Z,24096
2017-09-19T07:49:49.034Z,25504
2017-09-19T07:50:49.105Z,27360
2017-09-19T07:51:49.056Z,28032
2017-09-19T07:52:49.052Z,27552
2017-09-19T07:53:49.106Z,27744
2017-09-19T07:54:49.057Z,28960
2017-09-19T07:55:49.058Z,30496
2017-09-19T07:56:49.100Z,32320
2017-09-19T07:57:49.058Z,34752
2017-09-19T07:58:49.014Z,36000
2017-09-19T07:59:49.061Z,36800
2017-09-19T08:00:49.060Z,38336
2017-09-19T08:01:49.007Z,41248
2017-09-19T08:02:49.069Z,42688
2017-09-19T08:03:49.054Z,45440
2017-09-19T08:04:49.094Z,47776
2017-09-19T08:05:49.094Z,49248
2017-09-19T08:06:49.109Z,49920
2017-09-19T08:07:49.077Z,46112
2017-09-19T08:08:49.106Z,43680
2017-09-19T08:09:49.031Z,42368
2017-09-19T08:10:49.110Z,40960
2017-09-19T08:11:49.066Z,39840
2017-09-19T08:12:49.117Z,38912
2017-09-19T08:13:49.087Z,37568
2017-09-19T08:14:49.153Z,36256
2017-09-19T08:15:49.073Z,34656
2017-09-19T08:16:49.032Z,32704
2017-09-19T08:17:49.066Z,31104
2017-09-19T08:18:49.072Z,30208
2017-09-19T08:19:49.067Z,29632
2017-09-19T08:20:49.067Z,28832
2017-09-19T08:21:49.087Z,28224
2017-09-19T08:22:49.071Z,28608
2017-09-19T08:23:49.021Z,29216
2017-09-19T08:24:49.087Z,30240
2017-09-19T08:25:49.145Z,31520
2017-09-19T08:26:49.044Z,32704
2017-09-19T08:27:49.077Z,34400
2017-09-19T08:28:49.076Z,36864
2017-09-19T08:29:49.080Z,39904
2017-09-19T08:30:49.129Z,42912
2017-09-19T08:31:49.015Z,46144
2017-09-19T08:32:49.021Z,49856
2017-09-19T08:33:49.110Z,57216
2017-09-19T08:34:49.091Z,61024
2017-09-19T08:35:49.123Z,97728
2017-09-19T08:36:49.091Z,66240
2017-09-19T08:37:49.095Z,65600
2017-09-19T08:38:49.027Z,61984
2017-09-19T08:39:49.128Z,61280
2017-09-19T08:40:49.046Z,86336
2017-09-19T08:41:49.123Z,56352
2017-09-19T08:42:49.027Z,56896
2017-09-19T08:43:49.054Z,75872
2017-09-19T08:44:49.024Z,54400
2017-09-19T08:45:49.080Z,50720
2017-09-19T08:46:49.118Z,48512
2017-09-19T08:47:49.032Z,45312
2017-09-19T08:48:49.062Z,46432
2017-09-19T08:49:49.026Z,62912
2017-09-19T08:50:49.037Z,53760
2017-09-19T08:51:49.093Z,52064
2017-09-19T08:52:49.092Z,62080
2017-09-19T08:53:49.038Z,66336
2017-09-19T08:54:49.104Z,61952
2017-09-19T08:55:49.073Z,54144
2017-09-19T08:56:49.075Z,78880
2017-09-19T08:57:49.095Z,92224
2017-09-19T08:58:49.137Z,81696
2017-09-19T08:59:49.137Z,90272
2017-09-19T09:00:49.148Z,105184
2017-09-19T09:01:49.074Z,94112
2017-09-19T09:02:49.099Z,95872
2017-09-19T09:03:49.138Z,111392
2017-09-19T09:04:49.101Z,116128
2017-09-19T09:05:49.108Z,114240
2017-09-19T09:06:49.061Z,121696
2017-09-19T09:07:49.099Z,115392
2017-09-19T09:08:49.147Z,133440
2017-09-19T09:09:49.153Z,146016
2017-09-19T09:10:49.150Z,114016
2017-09-19T09:11:49.130Z,103040
2017-09-19T09:12:49.133Z,90560
2017-09-19T09:13:49.142Z,89888
2017-09-19T09:14:49.066Z,100768
2017-09-19T09:15:49.147Z,101696
2017-09-19T09:16:49.138Z,112960
2017-09-19T09:17:49.074Z,106752
2017-09-19T09:18:49.145Z,105664
2017-09-19T09:19:49.078Z,99104
2017-09-19T09:20:49.145Z,106432
2017-09-19T09:21:49.071Z,105248
2017-09-19T09:22:49.083Z,101888
2017-09-19T09:23:49.149Z,111872
2017-09-19T09:24:49.052Z,118464
2017-09-19T09:25:49.123Z,134880
2017-09-19T09:26:49.147Z,79296
2017-09-19T09:27:49.138Z,82560
2017-09-19T09:28:49.154Z,75040
2017-09-19T09:29:49.115Z,73728
2017-09-19T09:30:49.118Z,83456
2017-09-19T09:31:49.110Z,67712
2017-09-19T09:32:49.111Z,61280
2017-09-19T09:33:49.115Z,60768
2017-09-19T09:34:49.111Z,63904
2017-09-19T09:35:49.158Z,70208
2017-09-19T09:36:49.166Z,77504
2017-09-19T09:37:49.097Z,72800
2017-09-19T09:38:49.118Z,71904
2017-09-19T09:39:49.096Z,78656
2017-09-19T09:40:49.136Z,72704
2017-09-19T09:41:49.118Z,67840
2017-09-19T09:42:49.124Z,69504
2017-09-19T09:43:49.168Z,72832
2017-09-19T09:44:49.084Z,93440
2017-09-19T09:45:49.166Z,79072
2017-09-19T09:46:49.118Z,106720
2017-09-19T09:47:49.163Z,126720
2017-09-19T09:48:49.174Z,84384
2017-09-19T09:49:49.079Z,73888
2017-09-19T09:50:49.137Z,79744
2017-09-19T09:51:49.140Z,76096
2017-09-19T09:52:49.130Z,84608
2017-09-19T09:53:49.173Z,73280
2017-09-19T09:54:49.125Z,65664
2017-09-19T09:55:49.179Z,61568
2017-09-19T09:56:49.209Z,59552
2017-09-19T09:57:49.129Z,57696
2017-09-19T09:58:49.113Z,56544
2017-09-19T09:59:49.196Z,56064
2017-09-19T10:00:49.109Z,54560
2017-09-19T10:01:49.175Z,52576
2017-09-19T10:02:49.182Z,51648
2017-09-19T10:03:49.182Z,51904
2017-09-19T10:04:49.140Z,44448
2017-09-19T10:05:49.130Z,37600
2017-09-19T10:06:49.180Z,31872
2017-09-19T10:07:49.179Z,27712
2017-09-19T10:08:49.292Z,25248
2017-09-19T10:09:49.098Z,24224
2017-09-19T10:10:49.112Z,24256
2017-09-19T10:11:49.132Z,25344
2017-09-19T10:12:49.110Z,27520
2017-09-19T10:13:49.116Z,29856
2017-09-19T10:14:49.136Z,30720
2017-09-19T10:15:49.116Z,31392
2017-09-19T10:16:49.079Z,32864
2017-09-19T10:17:49.176Z,35552
2017-09-19T10:18:49.173Z,38016
2017-09-19T10:19:49.118Z,42240
2017-09-19T10:20:49.115Z,48768
2017-09-19T10:21:49.127Z,55872
2017-09-19T10:22:49.123Z,62784
2017-09-19T10:23:49.140Z,101984
2017-09-19T10:24:49.163Z,112032
2017-09-19T10:25:49.175Z,54816
2017-09-19T10:26:49.204Z,56064
2017-09-19T10:27:49.156Z,62336
2017-09-19T10:28:49.194Z,71552
2017-09-19T10:29:49.150Z,72864
2017-09-19T10:30:49.143Z,65728
2017-09-19T10:31:49.115Z,56736
2017-09-19T10:32:49.192Z,50912
2017-09-19T10:33:49.142Z,46784
2017-09-19T10:34:49.124Z,44192
2017-09-19T10:35:49.127Z,43488
2017-09-19T10:36:49.194Z,45856
2017-09-19T10:37:49.091Z,90880
2017-09-19T10:38:49.157Z,83264
2017-09-19T10:39:49.105Z,50496
2017-09-19T10:40:49.150Z,47680
2017-09-19T10:41:49.184Z,51264
2017-09-19T10:42:49.157Z,78912
2017-09-19T10:43:49.174Z,69120
2017-09-19T10:44:49.156Z,58432
2017-09-19T10:45:49.161Z,94464
2017-09-19T10:46:49.224Z,58240
2017-09-19T10:47:49.169Z,48000
2017-09-19T10:48:49.170Z,43552
2017-09-19T10:49:49.159Z,41280
2017-09-19T10:50:49.113Z,39552
2017-09-19T10:51:49.235Z,38272
2017-09-19T10:52:49.141Z,37792
2017-09-19T10:53:49.176Z,37376
2017-09-19T10:54:49.231Z,37440
2017-09-19T10:55:49.192Z,37344
2017-09-19T10:56:49.111Z,37504
2017-09-19T10:57:49.231Z,37888
2017-09-19T10:58:49.150Z,38848
2017-09-19T10:59:49.174Z,40320
2017-09-19T11:00:49.214Z,42176
2017-09-19T11:01:49.212Z,45312
2017-09-19T11:02:49.181Z,47712
2017-09-19T11:03:49.216Z,49120
2017-09-19T11:04:49.118Z,51328
2017-09-19T11:05:49.181Z,51360
2017-09-19T11:06:49.164Z,53504
2017-09-19T11:07:49.183Z,56480
2017-09-19T11:08:49.189Z,96448
2017-09-19T11:09:49.137Z,66656
2017-09-19T11:10:49.133Z,149696
2017-09-19T11:11:49.151Z,124448
2017-09-19T11:12:49.117Z,135264
2017-09-19T11:13:49.117Z,131168
2017-09-19T11:14:49.172Z,65056
2017-09-19T11:15:49.179Z,77408
2017-09-19T11:16:49.116Z,89856
2017-09-19T11:17:49.119Z,60480
2017-09-19T11:18:49.208Z,57504
2017-09-19T11:19:49.168Z,52928
2017-09-19T11:20:49.126Z,47680
2017-09-19T11:21:49.232Z,41248
2017-09-19T11:22:49.181Z,34848
2017-09-19T11:23:49.228Z,30656
2017-09-19T11:24:49.191Z,27360
2017-09-19T11:25:49.234Z,24768
2017-09-19T11:26:49.148Z,22752
2017-09-19T11:27:49.196Z,21408
2017-09-19T11:28:49.234Z,20332
2017-09-19T11:29:49.164Z,20084
2017-09-19T11:30:49.162Z,19884
2017-09-19T11:31:49.215Z,19936
2017-09-19T11:32:49.158Z,20468
2017-09-19T11:33:49.150Z,21600
2017-09-19T11:34:49.225Z,22144
2017-09-19T11:35:49.228Z,22080
2017-09-19T11:36:49.223Z,21952
2017-09-19T11:37:49.183Z,22208
2017-09-19T11:38:49.229Z,22656
2017-09-19T11:39:49.161Z,23392
2017-09-19T11:40:49.164Z,24192
2017-09-19T11:41:49.158Z,25056
2017-09-19T11:42:49.156Z,25728
2017-09-19T11:43:49.155Z,26528
2017-09-19T11:44:49.189Z,27136
2017-09-19T11:45:49.129Z,27808
2017-09-19T11:46:49.157Z,28480
2017-09-19T11:47:49.160Z,28960
2017-09-19T11:48:49.191Z,29536
2017-09-19T11:49:49.133Z,30304
2017-09-19T11:50:49.133Z,31104
2017-09-19T11:51:49.229Z,31616
2017-09-19T11:52:49.209Z,31616
2017-09-19T11:53:49.165Z,31168
2017-09-19T11:54:49.196Z,30528
2017-09-19T11:55:49.268Z,30080
2017-09-19T11:56:49.240Z,29792
2017-09-19T11:57:49.212Z,29952
2017-09-19T11:58:49.301Z,30432
2017-09-19T11:59:49.153Z,30816
2017-09-19T12:00:49.251Z,30912
2017-09-19T12:01:49.203Z,31296
2017-09-19T12:02:49.210Z,31552
2017-09-19T12:03:49.196Z,31840
2017-09-19T12:04:49.179Z,32096
2017-09-19T12:05:49.150Z,32480
2017-09-19T12:06:49.172Z,33216
2017-09-19T12:07:49.182Z,34144
2017-09-19T12:08:49.240Z,34528
2017-09-19T12:09:49.191Z,34240
2017-09-19T12:10:49.248Z,34304
2017-09-19T12:11:49.156Z,35072
2017-09-19T12:12:49.180Z,36480
2017-09-19T12:13:49.166Z,38464
2017-09-19T12:14:49.236Z,40800
2017-09-19T12:15:49.242Z,43232
2017-09-19T12:16:49.165Z,45408
2017-09-19T12:17:49.178Z,46432
2017-09-19T12:18:49.214Z,46272
2017-09-19T12:19:49.223Z,47488
2017-09-19T12:20:49.175Z,50400
2017-09-19T12:21:49.178Z,55008
2017-09-19T12:22:49.216Z,54944
2017-09-19T12:23:49.257Z,51424
2017-09-19T12:24:49.166Z,52640
2017-09-19T12:25:49.224Z,53312
2017-09-19T12:26:49.166Z,61696
2017-09-19T12:27:49.271Z,71296
2017-09-19T12:28:49.286Z,71936
2017-09-19T12:29:49.214Z,63040
2017-09-19T12:30:49.286Z,58208
2017-09-19T12:31:49.246Z,90784
2017-09-19T12:32:49.188Z,89984
2017-09-19T12:33:49.160Z,125728
2017-09-19T12:34:49.223Z,79200
2017-09-19T12:35:49.217Z,67136
2017-09-19T12:36:49.171Z,120224
2017-09-19T12:37:49.216Z,121888
2017-09-19T12:38:49.185Z,123936
2017-09-19T12:39:49.161Z,128800
2017-09-19T12:40:49.223Z,129888
2017-09-19T12:41:49.163Z,60224
2017-09-19T12:42:49.228Z,48320
2017-09-19T12:43:49.189Z,44352
2017-09-19T12:44:49.264Z,42016
2017-09-19T12:45:49.203Z,39968
2017-09-19T12:46:49.193Z,37792
2017-09-19T12:47:49.197Z,35360
2017-09-19T12:48:49.189Z,33216
2017-09-19T12:49:49.230Z,31488
2017-09-19T12:50:49.193Z,29920
2017-09-19T12:51:49.232Z,28288
2017-09-19T12:52:49.214Z,26880
2017-09-19T12:53:49.234Z,25536
2017-09-19T12:54:49.212Z,24384
2017-09-19T12:55:49.215Z,23136
2017-09-19T12:56:49.275Z,21760
2017-09-19T12:57:49.214Z,20052
2017-09-19T12:58:49.235Z,18484
2017-09-19T12:59:49.293Z,16956
2017-09-19T13:00:49.199Z,15508
2017-09-19T13:01:49.238Z,14608
2017-09-19T13:02:49.240Z,14184
2017-09-19T13:03:49.281Z,13964
2017-09-19T13:04:49.275Z,13700
2017-09-19T13:05:49.289Z,13432
2017-09-19T13:06:49.279Z,13628
2017-09-19T13:07:49.236Z,14100
2017-09-19T13:08:49.254Z,14796
2017-09-19T13:09:49.188Z,14936
2017-09-19T13:10:49.280Z,15184
2017-09-19T13:11:49.239Z,15588
2017-09-19T13:12:49.210Z,15856
2017-09-19T13:13:49.300Z,16264
2017-09-19T13:14:49.263Z,17340
2017-09-19T13:15:49.216Z,18824
2017-09-19T13:16:49.182Z,20992
2017-09-19T13:17:49.182Z,22880
2017-09-19T13:18:49.215Z,23744
2017-09-19T13:19:49.188Z,24160
2017-09-19T13:20:49.187Z,24480
2017-09-19T13:21:49.189Z,24800
2017-09-19T13:22:49.301Z,25376
2017-09-19T13:23:49.324Z,26848
2017-09-19T13:24:49.234Z,28640
2017-09-19T13:25:49.202Z,29888
2017-09-19T13:26:49.252Z,31328
2017-09-19T13:27:49.218Z,33280
2017-09-19T13:28:49.260Z,35136
2017-09-19T13:29:49.255Z,36608
2017-09-19T13:30:49.303Z,37152
2017-09-19T13:31:49.224Z,37472
2017-09-19T13:32:49.285Z,38144
2017-09-19T13:33:49.260Z,39296
2017-09-19T13:34:49.259Z,40480